Metar Aviation Weather Data LFTW

17°C Temp
1°C Dewpoint
% Humidity
Temperature
8 KM/H
5 MPH
4 KTS
Calm
Due North

Wind Speed
Clear
Conditions
Pressure 1026.92 (hPa) - 30.32 (in)
Visibility 6.2 (mi) - 10.0 (km)

Current Conditions
LFTW
Metar :LFTW 211230Z AUTO VRB04KT CAVOK 17/01 Q1027 NOSIG
Thu 21st March 13:30 pm

  Metar Aviation API Data Provided by https://www.checkwx.com/ PHP scripts by weather34.com ©2019